createdAt,value
2019-04-16T00:01:31.992Z,92104.64
2019-04-16T00:04:37.672Z,92108.38
2019-04-16T00:07:39.941Z,92107.18
2019-04-16T00:10:47.119Z,92104.37
2019-04-16T00:13:44.278Z,92106.30
2019-04-16T00:16:31.960Z,92106.02
2019-04-16T00:19:20.589Z,92100.97
2019-04-16T00:22:25.440Z,92103.25
2019-04-16T00:25:13.102Z,92110.48
2019-04-16T00:28:01.561Z,92105.86
2019-04-16T00:30:49.990Z,92104.88
2019-04-16T00:33:39.374Z,92101.53
2019-04-16T00:36:27.428Z,92102.13
2019-04-16T00:39:24.608Z,92106.63
2019-04-16T00:42:11.281Z,92098.53
2019-04-16T00:44:59.608Z,92104.13
2019-04-16T00:47:51.291Z,92096.39
2019-04-16T00:50:37.218Z,92102.30
2019-04-16T00:53:25.750Z,92091.24
2019-04-16T00:56:16.200Z,92093.70
2019-04-16T00:59:03.564Z,92091.34
2019-04-16T01:01:51.221Z,92088.67
2019-04-16T01:04:39.769Z,92088.16
2019-04-16T01:07:28.176Z,92086.02
2019-04-16T01:10:16.299Z,92077.34
2019-04-16T01:13:04.875Z,92079.36
2019-04-16T01:15:53.038Z,92087.17
2019-04-16T01:18:41.153Z,92082.67
2019-04-16T01:21:28.886Z,92086.02
2019-04-16T01:24:17.536Z,92078.03
2019-04-16T01:27:06.106Z,92075.21
2019-04-16T01:29:54.573Z,92079.80
2019-04-16T01:33:00.827Z,92084.30
2019-04-16T01:35:56.082Z,92086.34
2019-04-16T01:39:10.931Z,92078.34
2019-04-16T01:41:46.085Z,92079.88
2019-04-16T01:44:33.951Z,92074.99
2019-04-16T01:47:22.172Z,92079.45
2019-04-16T01:50:12.928Z,92079.58
2019-04-16T01:52:59.183Z,92075.70
2019-04-16T01:55:46.796Z,92073.59
2019-04-16T01:58:34.989Z,92071.99
2019-04-16T02:01:23.481Z,92076.70
2019-04-16T02:04:11.586Z,92082.37
2019-04-16T02:06:59.581Z,92082.72
2019-04-16T02:09:47.783Z,92080.69
2019-04-16T02:12:35.693Z,92079.36
2019-04-16T02:15:23.768Z,92077.02
2019-04-16T02:18:12.380Z,92079.69
2019-04-16T02:21:00.003Z,92074.87
2019-04-16T02:23:48.774Z,92081.41
2019-04-16T02:26:38.968Z,92077.02
2019-04-16T02:29:29.740Z,92076.60
2019-04-16T02:32:16.563Z,92076.35
2019-04-16T02:35:04.768Z,92077.33
2019-04-16T02:37:53.073Z,92078.47
2019-04-16T02:40:41.514Z,92073.47
2019-04-16T02:43:29.915Z,92064.27
2019-04-16T02:46:18.255Z,92070.30
2019-04-16T02:49:06.086Z,92079.01
2019-04-16T02:52:20.175Z,92072.03
2019-04-16T02:55:33.071Z,92067.64
2019-04-16T02:58:34.009Z,92067.12
2019-04-16T03:01:34.715Z,92059.56
2019-04-16T03:04:27.043Z,92062.12
2019-04-16T03:07:15.700Z,92059.37
2019-04-16T03:10:03.493Z,92057.83
2019-04-16T03:12:54.891Z,92060.30
2019-04-16T03:16:02.781Z,92065.20
2019-04-16T03:18:59.212Z,92064.48
2019-04-16T03:21:47.156Z,92059.78
2019-04-16T03:24:37.493Z,92061.47
2019-04-16T03:27:24.833Z,92065.38
2019-04-16T03:30:13.653Z,92066.82
2019-04-16T03:33:10.174Z,92069.90
2019-04-16T03:35:51.472Z,92074.59
2019-04-16T03:38:42.039Z,92078.08
2019-04-16T03:41:28.592Z,92077.66
2019-04-16T03:44:17.084Z,92083.42
2019-04-16T03:47:05.410Z,92088.40
2019-04-16T03:49:53.604Z,92093.51
2019-04-16T03:52:45.820Z,92094.44
2019-04-16T03:55:32.298Z,92094.83
2019-04-16T03:58:20.173Z,92098.11
2019-04-16T04:01:08.552Z,92097.73
2019-04-16T04:03:57.566Z,92097.86
2019-04-16T04:06:46.271Z,92097.73
2019-04-16T04:09:34.435Z,92097.65
2019-04-16T04:12:22.987Z,92103.95
2019-04-16T04:15:10.953Z,92109.19
2019-04-16T04:17:59.361Z,92106.37
2019-04-16T04:20:50.526Z,92111.58
2019-04-16T04:23:36.687Z,92116.98
2019-04-16T04:26:24.421Z,92128.23
2019-04-16T04:29:12.571Z,92124.64
2019-04-16T04:32:03.080Z,92121.41
2019-04-16T04:34:49.685Z,92126.27
2019-04-16T04:37:37.535Z,92128.73
2019-04-16T04:40:26.010Z,92131.08
2019-04-16T04:43:14.099Z,92138.02
2019-04-16T04:46:01.763Z,92127.86
2019-04-16T04:48:55.018Z,92134.04
2019-04-16T04:51:42.667Z,92130.92
2019-04-16T04:54:28.965Z,92133.52
2019-04-16T04:57:17.085Z,92127.17
2019-04-16T05:00:08.417Z,92125.67
2019-04-16T05:02:55.443Z,92122.13
2019-04-16T05:05:48.448Z,92117.40
2019-04-16T05:08:36.206Z,92116.34
2019-04-16T05:11:24.037Z,92116.66
2019-04-16T05:14:11.880Z,92117.09
2019-04-16T05:17:00.094Z,92117.58
2019-04-16T05:19:48.382Z,92121.88
2019-04-16T05:22:36.411Z,92122.55
2019-04-16T05:25:24.283Z,92129.24
2019-04-16T05:28:13.353Z,92133.58
2019-04-16T05:31:02.337Z,92131.06
2019-04-16T05:33:50.758Z,92131.91
2019-04-16T05:36:40.213Z,92134.56
2019-04-16T05:39:29.612Z,92136.20
2019-04-16T05:42:18.037Z,92129.40
2019-04-16T05:45:06.404Z,92142.02
2019-04-16T05:47:54.959Z,92134.84
2019-04-16T05:50:42.715Z,92130.33
2019-04-16T05:53:30.789Z,92137.54
2019-04-16T05:56:36.230Z,92135.40
2019-04-16T05:59:24.132Z,92134.44
2019-04-16T06:02:31.881Z,92123.47
2019-04-16T06:05:19.610Z,92124.05
2019-04-16T06:08:14.349Z,92127.24
2019-04-16T06:11:02.672Z,92125.13
2019-04-16T06:14:00.099Z,92119.30
2019-04-16T06:17:05.592Z,92123.48
2019-04-16T06:20:11.627Z,92127.67
2019-04-16T06:23:05.375Z,92119.37
2019-04-16T06:26:18.092Z,92121.41
2019-04-16T06:29:25.400Z,92122.14
2019-04-16T06:32:36.445Z,92123.69
2019-04-16T06:35:44.472Z,92124.28
2019-04-16T06:38:37.351Z,92123.71
2019-04-16T06:41:48.401Z,92123.42
2019-04-16T06:44:44.098Z,92113.30
2019-04-16T06:47:51.403Z,92114.25
2019-04-16T06:50:58.859Z,92117.88
2019-04-16T06:54:04.763Z,92117.20
2019-04-16T06:57:12.167Z,92113.16
2019-04-16T07:00:08.603Z,92115.11
2019-04-16T07:03:27.003Z,92118.88
2019-04-16T07:06:35.912Z,92116.91
2019-04-16T07:09:42.215Z,92124.16
2019-04-16T07:12:37.918Z,92121.30
2019-04-16T07:15:28.150Z,92123.84
2019-04-16T07:18:12.750Z,92122.13
2019-04-16T07:21:00.926Z,92124.02
2019-04-16T07:23:49.380Z,92123.61
2019-04-16T07:26:39.531Z,92129.27
2019-04-16T07:29:46.571Z,92120.90
2019-04-16T07:33:00.696Z,92127.36
2019-04-16T07:35:55.691Z,92123.27
2019-04-16T07:39:28.901Z,92126.34
2019-04-16T07:42:11.753Z,92120.45
2019-04-16T07:45:23.144Z,92119.89
2019-04-16T07:48:38.495Z,92116.55
2019-04-16T07:51:37.277Z,92112.23
2019-04-16T07:54:37.189Z,92113.09
2019-04-16T07:57:25.544Z,92099.55
2019-04-16T08:00:14.891Z,92109.53
2019-04-16T08:03:03.329Z,92106.77
2019-04-16T08:05:51.738Z,92111.46
2019-04-16T08:08:39.948Z,92107.73
2019-04-16T08:11:27.663Z,92109.12
2019-04-16T08:14:15.714Z,92108.12
2019-04-16T08:17:03.389Z,92102.38
2019-04-16T08:19:55.061Z,92098.27
2019-04-16T08:22:40.933Z,92098.05
2019-04-16T08:25:33.896Z,92102.03
2019-04-16T08:28:20.416Z,92091.66
2019-04-16T08:31:12.741Z,92090.91
2019-04-16T08:34:00.639Z,92091.69
2019-04-16T08:36:49.071Z,92086.55
2019-04-16T08:39:39.857Z,92080.80
2019-04-16T08:42:29.507Z,92081.96
2019-04-16T08:45:16.363Z,92081.58
2019-04-16T08:48:04.091Z,92077.00
2019-04-16T08:50:52.163Z,92066.23
2019-04-16T08:53:39.876Z,92074.97
2019-04-16T08:56:27.936Z,92070.92
2019-04-16T08:59:16.102Z,92074.06
2019-04-16T09:02:04.192Z,92071.23
2019-04-16T09:04:52.191Z,92069.82
2019-04-16T09:07:40.753Z,92069.92
2019-04-16T09:10:30.924Z,92061.33
2019-04-16T09:13:20.556Z,92061.16
2019-04-16T09:16:10.535Z,92058.00
2019-04-16T09:19:01.566Z,92057.48
2019-04-16T09:21:50.025Z,92063.22
2019-04-16T09:24:44.091Z,92065.95
2019-04-16T09:27:40.277Z,92062.57
2019-04-16T09:31:05.712Z,92059.87
2019-04-16T09:34:28.172Z,92062.81
2019-04-16T09:37:40.314Z,92056.73
2019-04-16T09:40:48.829Z,92055.70
2019-04-16T09:43:40.044Z,92058.25
2019-04-16T09:46:48.820Z,92055.28
2019-04-16T09:49:16.183Z,92058.20
2019-04-16T09:52:04.622Z,92063.30
2019-04-16T09:54:53.034Z,92060.11
2019-04-16T09:57:41.035Z,92054.70
2019-04-16T10:00:34.843Z,92064.83
2019-04-16T10:03:40.744Z,92068.74
2019-04-16T10:06:28.803Z,92058.52
2019-04-16T10:09:21.677Z,92068.17
2019-04-16T10:12:07.957Z,92059.97
2019-04-16T10:14:56.027Z,92063.21
2019-04-16T10:17:44.757Z,92061.83
2019-04-16T10:20:33.263Z,92059.22
2019-04-16T10:23:43.380Z,92059.00
2019-04-16T10:26:31.438Z,92061.47
2019-04-16T10:29:19.926Z,92064.91
2019-04-16T10:32:08.123Z,92062.41
2019-04-16T10:34:56.335Z,92056.97
2019-04-16T10:37:44.150Z,92054.88
2019-04-16T10:40:43.944Z,92052.84
2019-04-16T10:43:56.543Z,92052.72
2019-04-16T10:47:01.657Z,92050.91
2019-04-16T10:50:14.969Z,92049.81
2019-04-16T10:53:18.985Z,92049.51
2019-04-16T10:56:24.427Z,92050.02
2019-04-16T10:59:34.586Z,92049.53
2019-04-16T11:02:43.739Z,92047.47
2019-04-16T11:05:37.615Z,92040.34
2019-04-16T11:08:28.344Z,92040.19
2019-04-16T11:11:16.726Z,92043.78
2019-04-16T11:14:04.797Z,92042.34
2019-04-16T11:16:52.909Z,92042.22
2019-04-16T11:19:41.623Z,92038.97
2019-04-16T11:22:29.749Z,92041.78
2019-04-16T11:25:18.222Z,92033.84
2019-04-16T11:28:08.475Z,92030.66
2019-04-16T11:30:58.295Z,92028.95
2019-04-16T11:33:46.864Z,92021.78
2019-04-16T11:36:35.666Z,92031.31
2019-04-16T11:39:24.106Z,92027.19
2019-04-16T11:42:11.845Z,92019.19
2019-04-16T11:44:59.518Z,92024.68
2019-04-16T11:47:48.378Z,92017.23
2019-04-16T11:50:36.440Z,92018.47
2019-04-16T11:53:24.749Z,92016.38
2019-04-16T11:56:12.779Z,92008.31
2019-04-16T11:59:01.176Z,92003.41
2019-04-16T12:01:54.082Z,91993.53
2019-04-16T12:05:04.178Z,91998.94
2019-04-16T12:08:00.887Z,91996.81
2019-04-16T12:11:10.399Z,91991.53
2019-04-16T12:14:29.892Z,91995.91
2019-04-16T12:17:16.981Z,91984.70
2019-04-16T12:20:43.379Z,91975.06
2019-04-16T12:23:48.286Z,91972.23
2019-04-16T12:27:05.233Z,91973.39
2019-04-16T12:29:58.378Z,91968.37
2019-04-16T12:33:00.945Z,91976.16
2019-04-16T12:35:57.420Z,91984.95
2019-04-16T12:39:10.150Z,91986.28
2019-04-16T12:42:17.667Z,92004.09
2019-04-16T12:45:20.532Z,91992.69
2019-04-16T12:48:14.500Z,91983.02
2019-04-16T12:51:16.882Z,91967.81
2019-04-16T12:54:25.624Z,91961.67
2019-04-16T12:57:22.376Z,91951.84
2019-04-16T13:00:31.756Z,91967.14
2019-04-16T13:03:34.824Z,91955.13
2019-04-16T13:06:40.753Z,91956.25
2019-04-16T13:09:44.367Z,91944.63
2019-04-16T13:12:49.151Z,91950.02
2019-04-16T13:15:58.129Z,91946.77
2019-04-16T13:19:05.118Z,91950.00
2019-04-16T13:21:59.772Z,91944.90
2019-04-16T13:24:59.459Z,91948.12
2019-04-16T13:27:50.549Z,91943.09
2019-04-16T13:30:37.214Z,91936.95
2019-04-16T13:33:25.604Z,91937.32
2019-04-16T13:36:13.741Z,91936.52
2019-04-16T13:39:07.917Z,91927.55
2019-04-16T13:41:55.685Z,91927.42
2019-04-16T13:44:47.730Z,91923.41
2019-04-16T13:47:45.916Z,91920.53
2019-04-16T13:50:53.285Z,91922.58
2019-04-16T13:54:06.674Z,91917.30
2019-04-16T13:56:57.001Z,91917.00
2019-04-16T14:00:05.573Z,91919.11
2019-04-16T14:02:59.600Z,91917.64
2019-04-16T14:05:47.604Z,91918.70
2019-04-16T14:08:35.873Z,91925.59
2019-04-16T14:11:24.284Z,91924.75
2019-04-16T14:14:17.159Z,91921.92
2019-04-16T14:17:08.977Z,91923.13
2019-04-16T14:19:51.023Z,91917.57
2019-04-16T14:22:39.420Z,91916.36
2019-04-16T14:25:28.784Z,91917.59
2019-04-16T14:28:18.168Z,91914.78
2019-04-16T14:31:06.626Z,91908.03
2019-04-16T14:34:13.557Z,91911.76
2019-04-16T14:37:01.458Z,91911.05
2019-04-16T14:39:33.290Z,91913.25
2019-04-16T14:42:03.150Z,91919.52
2019-04-16T14:44:37.681Z,91919.11
2019-04-16T14:47:07.683Z,91917.38
2019-04-16T14:49:37.464Z,91917.22
2019-04-16T14:52:07.629Z,91916.72
2019-04-16T14:54:42.304Z,91911.60
2019-04-16T14:57:12.196Z,91924.93
2019-04-16T15:00:00.892Z,91916.17
2019-04-16T15:03:02.075Z,91913.50
2019-04-16T15:06:03.407Z,91906.11
2019-04-16T15:08:50.924Z,91910.93
2019-04-16T15:11:38.246Z,91909.58
2019-04-16T15:14:14.988Z,91912.09
2019-04-16T15:16:58.876Z,91917.22
2019-04-16T15:19:34.972Z,91910.93
2019-04-16T15:22:22.977Z,91906.76
2019-04-16T15:25:17.626Z,91913.61
2019-04-16T15:28:03.877Z,91907.31
2019-04-16T15:31:04.809Z,91912.13
2019-04-16T15:34:11.152Z,91911.23
2019-04-16T15:36:49.902Z,91912.16
2019-04-16T15:39:21.117Z,91915.69
2019-04-16T15:42:05.164Z,91922.20
2019-04-16T15:44:41.683Z,91914.08
2019-04-16T15:47:36.409Z,91916.67
2019-04-16T15:50:14.993Z,91915.71
2019-04-16T15:53:03.623Z,91917.83
2019-04-16T15:56:01.440Z,91923.09
2019-04-16T15:58:48.187Z,91922.95
2019-04-16T16:01:24.799Z,91927.53
2019-04-16T16:04:22.732Z,91929.79
2019-04-16T16:07:07.915Z,91934.37
2019-04-16T16:09:58.051Z,91930.90
2019-04-16T16:12:28.065Z,91932.45
2019-04-16T16:14:57.915Z,91937.13
2019-04-16T16:17:27.762Z,91932.61
2019-04-16T16:19:57.549Z,91942.45
2019-04-16T16:22:27.304Z,91939.66
2019-04-16T16:24:57.324Z,91946.19
2019-04-16T16:27:27.272Z,91939.59
2019-04-16T16:30:00.117Z,91946.52
2019-04-16T16:32:29.869Z,91948.04
2019-04-16T16:34:59.709Z,91943.66
2019-04-16T16:37:29.444Z,91943.86
2019-04-16T16:39:59.183Z,91938.20
2019-04-16T16:42:28.964Z,91946.61
2019-04-16T16:45:01.713Z,91951.13
2019-04-16T16:47:39.889Z,91956.10
2019-04-16T16:50:16.213Z,91951.86
2019-04-16T16:53:00.966Z,91950.53
2019-04-16T16:55:34.892Z,91953.09
2019-04-16T16:58:24.281Z,91953.34
2019-04-16T17:01:14.904Z,91961.41
2019-04-16T17:03:52.783Z,91961.42
2019-04-16T17:06:22.950Z,91966.39
2019-04-16T17:08:52.691Z,91968.23
2019-04-16T17:11:22.535Z,91973.05
2019-04-16T17:13:52.299Z,91969.16
2019-04-16T17:16:23.723Z,91976.23
2019-04-16T17:18:53.513Z,91976.44
2019-04-16T17:21:23.255Z,91980.69
2019-04-16T17:23:53.078Z,91980.98
2019-04-16T17:26:25.285Z,91983.34
2019-04-16T17:28:55.027Z,91986.00
2019-04-16T17:31:24.779Z,91984.59
2019-04-16T17:33:54.560Z,91988.91
2019-04-16T17:36:24.305Z,91993.55
2019-04-16T17:38:54.059Z,91994.98
2019-04-16T17:41:27.455Z,91992.73
2019-04-16T17:44:14.935Z,92002.98
2019-04-16T17:47:03.624Z,92000.23
2019-04-16T17:50:02.471Z,91996.63
2019-04-16T17:52:51.703Z,92008.92
2019-04-16T17:55:43.032Z,92003.96
2019-04-16T17:58:28.928Z,92010.88
2019-04-16T18:01:26.628Z,92008.50
2019-04-16T18:04:10.684Z,92012.06
2019-04-16T18:06:47.058Z,92016.97
2019-04-16T18:09:27.576Z,92022.29
2019-04-16T18:12:16.983Z,92024.20
2019-04-16T18:15:16.554Z,92030.30
2019-04-16T18:18:18.802Z,92028.02
2019-04-16T18:21:06.607Z,92033.38
2019-04-16T18:23:53.769Z,92031.64
2019-04-16T18:26:36.168Z,92036.45
2019-04-16T18:29:24.432Z,92039.28
2019-04-16T18:32:03.321Z,92043.89
2019-04-16T18:34:51.743Z,92050.03
2019-04-16T18:37:43.353Z,92062.30
2019-04-16T18:40:28.731Z,92060.81
2019-04-16T18:43:16.157Z,92053.73
2019-04-16T18:46:03.649Z,92054.67
2019-04-16T18:48:35.104Z,92060.52
2019-04-16T18:51:05.021Z,92056.55
2019-04-16T18:53:34.877Z,92062.16
2019-04-16T18:56:05.148Z,92069.56
2019-04-16T18:58:35.077Z,92071.81
2019-04-16T19:01:11.484Z,92066.72
2019-04-16T19:03:41.366Z,92064.88
2019-04-16T19:06:11.283Z,92071.08
2019-04-16T19:08:42.337Z,92065.89
2019-04-16T19:11:12.305Z,92074.25
2019-04-16T19:13:42.050Z,92070.86
2019-04-16T19:16:11.884Z,92074.63
2019-04-16T19:18:41.629Z,92067.63
2019-04-16T19:21:11.373Z,92070.91
2019-04-16T19:23:44.164Z,92067.77
2019-04-16T19:26:13.985Z,92065.17
2019-04-16T19:28:45.596Z,92072.44
2019-04-16T19:31:15.457Z,92076.61
2019-04-16T19:33:45.198Z,92079.97
2019-04-16T19:36:14.940Z,92080.33
2019-04-16T19:38:44.735Z,92077.09
2019-04-16T19:41:14.470Z,92080.05
2019-04-16T19:43:47.369Z,92074.89
2019-04-16T19:46:17.196Z,92074.27
2019-04-16T19:48:46.983Z,92078.12
2019-04-16T19:51:19.594Z,92086.06
2019-04-16T19:53:48.594Z,92079.91
2019-04-16T19:56:19.589Z,92082.95
2019-04-16T19:59:07.959Z,92078.41
2019-04-16T20:01:59.815Z,92079.56
2019-04-16T20:04:45.423Z,92073.80
2019-04-16T20:07:34.769Z,92080.14
2019-04-16T20:10:22.650Z,92080.33
2019-04-16T20:13:11.071Z,92081.66
2019-04-16T20:16:00.611Z,92076.58
2019-04-16T20:18:51.134Z,92078.31
2019-04-16T20:21:38.745Z,92086.14
2019-04-16T20:24:27.031Z,92075.45
2019-04-16T20:27:17.806Z,92076.59
2019-04-16T20:30:08.934Z,92081.48
2019-04-16T20:32:57.764Z,92069.95
2019-04-16T20:35:50.298Z,92071.55
2019-04-16T20:38:35.760Z,92075.53
2019-04-16T20:41:24.210Z,92076.06
2019-04-16T20:44:12.858Z,92072.52
2019-04-16T20:47:03.614Z,92077.06
2019-04-16T20:49:50.458Z,92077.13
2019-04-16T20:52:38.779Z,92071.01
2019-04-16T20:55:27.297Z,92072.59
2019-04-16T20:58:15.239Z,92071.52
2019-04-16T21:01:03.780Z,92069.05
2019-04-16T21:04:04.957Z,92070.56
2019-04-16T21:06:47.440Z,92070.74
2019-04-16T21:09:35.549Z,92074.56
2019-04-16T21:12:24.008Z,92071.18
2019-04-16T21:15:11.733Z,92073.11
2019-04-16T21:17:59.920Z,92066.33
2019-04-16T21:20:50.901Z,92068.19
2019-04-16T21:23:37.304Z,92068.13
2019-04-16T21:26:25.615Z,92066.42
2019-04-16T21:29:23.004Z,92067.92
2019-04-16T21:32:21.341Z,92070.77
2019-04-16T21:35:16.851Z,92068.39
2019-04-16T21:38:21.872Z,92073.06
2019-04-16T21:41:10.016Z,92071.92
2019-04-16T21:43:58.128Z,92063.64
2019-04-16T21:46:49.624Z,92062.16
2019-04-16T21:49:38.900Z,92068.96
2019-04-16T21:52:25.452Z,92067.88
2019-04-16T21:55:13.154Z,92061.07
2019-04-16T21:58:01.575Z,92070.11
2019-04-16T22:01:09.888Z,92070.20
2019-04-16T22:04:04.940Z,92069.94
2019-04-16T22:06:53.416Z,92068.20
2019-04-16T22:09:41.839Z,92062.92
2019-04-16T22:12:30.400Z,92070.11
2019-04-16T22:15:18.796Z,92061.78
2019-04-16T22:18:08.826Z,92061.26
2019-04-16T22:20:56.093Z,92061.97
2019-04-16T22:23:47.420Z,92056.98
2019-04-16T22:26:35.256Z,92058.92
2019-04-16T22:29:23.601Z,92058.70
2019-04-16T22:32:12.109Z,92057.89
2019-04-16T22:35:00.501Z,92061.77
2019-04-16T22:37:49.359Z,92061.13
2019-04-16T22:40:44.750Z,92062.00
2019-04-16T22:44:04.433Z,92060.52
2019-04-16T22:46:56.333Z,92066.73
2019-04-16T22:49:44.807Z,92061.25
2019-04-16T22:52:32.918Z,92060.28
2019-04-16T22:55:24.378Z,92066.22
2019-04-16T22:58:23.596Z,92053.84
2019-04-16T23:01:14.148Z,92059.75
2019-04-16T23:04:03.612Z,92064.23
2019-04-16T23:06:51.977Z,92061.91
2019-04-16T23:09:40.049Z,92062.60
2019-04-16T23:12:28.512Z,92060.69
2019-04-16T23:15:17.068Z,92053.37
2019-04-16T23:18:05.564Z,92053.42
2019-04-16T23:20:53.998Z,92057.66
2019-04-16T23:23:42.443Z,92052.88
2019-04-16T23:26:33.010Z,92059.81
2019-04-16T23:29:20.676Z,92051.91
2019-04-16T23:32:09.042Z,92053.59
2019-04-16T23:34:56.503Z,92051.15
2019-04-16T23:37:44.422Z,92059.54
2019-04-16T23:40:33.076Z,92060.47
2019-04-16T23:43:55.376Z,92058.25
2019-04-16T23:47:11.931Z,92063.77
2019-04-16T23:50:10.140Z,92057.58
2019-04-16T23:53:07.988Z,92058.52
2019-04-16T23:56:21.629Z,92054.81
2019-04-16T23:59:19.694Z,92059.47
